Time;durP1;ratioP1;P1;durP2;ratioP2;P2;SDS_P1;SDS_P2;PMS_P1;PMS_P2;Temp;Humidity;BMP_temperature;BMP_pressure;BME280_temperature;BME280_humidity;BME280_pressure;Samples;Min_cycle;Max_cycle;Signal;HPM_P1;HPM_P2
2022/07/31 00:01:52;;;;;;;11.10;9.85;;;;;;;13.86;100.00;98847.44;4199860;28;20047;-72
2022/07/31 00:03:53;;;;;;;10.07;8.30;;;;;;;13.85;100.00;98845.06;4198243;28;20070;-72
2022/07/31 00:05:53;;;;;;;12.77;9.18;;;;;;;13.77;100.00;98836.69;4200503;28;20048;-72
2022/07/31 00:07:53;;;;;;;9.65;8.65;;;;;;;13.78;100.00;98848.59;4201266;28;20123;-72
2022/07/31 00:09:54;;;;;;;13.63;9.05;;;;;;;13.76;100.00;98842.63;4197602;28;20069;-72
2022/07/31 00:11:55;;;;;;;11.52;8.88;;;;;;;13.73;100.00;98846.19;4199039;28;20075;-72
2022/07/31 00:13:55;;;;;;;10.18;8.95;;;;;;;13.73;100.00;98840.63;4199045;28;20472;-71
2022/07/31 00:15:56;;;;;;;9.63;8.18;;;;;;;13.70;100.00;98839.44;4197682;28;20177;-71
2022/07/31 00:17:56;;;;;;;9.88;8.40;;;;;;;13.69;100.00;98848.16;4198446;28;20267;-71
2022/07/31 00:19:57;;;;;;;9.15;7.90;;;;;;;13.70;100.00;98838.63;4199729;28;20097;-72
2022/07/31 00:21:57;;;;;;;14.45;8.68;;;;;;;13.68;100.00;98833.47;4201308;28;20038;-72
2022/07/31 00:23:58;;;;;;;11.02;9.10;;;;;;;13.65;100.00;98834.25;4191411;28;20044;-72
2022/07/31 00:25:58;;;;;;;11.77;9.10;;;;;;;13.64;100.00;98846.53;4200385;28;20083;-72
2022/07/31 00:27:58;;;;;;;10.52;8.43;;;;;;;13.62;100.00;98845.34;4199547;28;20048;-72
2022/07/31 00:29:59;;;;;;;10.85;8.52;;;;;;;13.57;100.00;98842.91;4199053;28;20041;-72
2022/07/31 00:31:59;;;;;;;12.20;9.57;;;;;;;13.53;100.00;98844.91;4199112;28;20340;-72
2022/07/31 00:33:59;;;;;;;13.18;9.02;;;;;;;13.45;100.00;98839.28;4199552;28;20444;-72
2022/07/31 00:36:00;;;;;;;10.90;8.68;;;;;;;13.44;100.00;98837.72;4199849;28;20127;-72
2022/07/31 00:38:01;;;;;;;10.90;9.13;;;;;;;13.39;100.00;98840.03;4199471;28;20101;-72
2022/07/31 00:40:01;;;;;;;11.88;9.23;;;;;;;13.34;100.00;98838.44;4197584;28;20048;-72
2022/07/31 00:42:02;;;;;;;10.73;8.60;;;;;;;13.31;100.00;98846.75;4200355;28;20030;-72
2022/07/31 00:44:02;;;;;;;14.93;9.30;;;;;;;13.30;100.00;98845.16;4198348;28;20276;-72
2022/07/31 00:46:02;;;;;;;9.40;8.20;;;;;;;13.25;100.00;98842.75;4199872;28;20048;-72
2022/07/31 00:48:03;;;;;;;13.25;9.07;;;;;;;13.19;100.00;98836.72;4199768;28;20432;-72
2022/07/31 00:50:04;;;;;;;13.15;10.43;;;;;;;13.17;100.00;98834.34;4197013;28;20082;-72
2022/07/31 00:52:05;;;;;;;10.60;9.18;;;;;;;13.17;100.00;98839.91;4197536;28;20446;-72
2022/07/31 00:54:09;;;;;;;11.70;8.80;;;;;;;13.19;100.00;98833.94;4200833;28;20058;-71
2022/07/31 00:56:09;;;;;;;12.63;8.98;;;;;;;13.17;100.00;98836.31;4200977;28;20078;-72
2022/07/31 00:58:10;;;;;;;11.05;9.55;;;;;;;13.13;100.00;98839.06;4197559;28;20028;-72
2022/07/31 01:00:12;;;;;;;12.07;9.55;;;;;;;13.06;100.00;98825.13;4198612;28;20074;-72
2022/07/31 01:02:12;;;;;;;14.63;9.57;;;;;;;13.06;100.00;98832.66;4198533;28;20032;-72
2022/07/31 01:04:15;;;;;;;12.40;8.85;;;;;;;13.02;100.00;98831.84;4200277;28;20028;-72
2022/07/31 01:06:15;;;;;;;10.88;9.57;;;;;;;13.02;100.00;98826.28;4199526;28;20036;-72
2022/07/31 01:08:15;;;;;;;11.30;9.02;;;;;;;12.99;100.00;98824.28;4200749;28;20020;-72
2022/07/31 01:10:50;;;;;;;9.63;8.57;;;;;;;12.98;100.00;98820.69;4198845;28;20085;-72
2022/07/31 01:12:55;;;;;;;9.95;8.60;;;;;;;12.99;100.00;98822.31;4190657;28;20070;-72
2022/07/31 01:14:58;;;;;;;9.48;8.52;;;;;;;13.06;100.00;98827.09;4200089;28;20048;-72
2022/07/31 01:17:01;;;;;;;9.52;8.60;;;;;;;13.02;100.00;98835.41;4193024;28;20051;-72
2022/07/31 01:19:22;;;;;;;11.80;9.52;;;;;;;12.97;100.00;98821.88;4199812;28;20036;-72
2022/07/31 01:21:55;;;;;;;11.18;9.13;;;;;;;12.87;100.00;98837.28;4199606;28;20036;-72
2022/07/31 01:24:04;;;;;;;12.70;10.25;;;;;;;12.73;100.00;98826.06;4199098;28;20048;-72
2022/07/31 01:26:34;;;;;;;17.52;9.63;;;;;;;12.68;100.00;98831.97;4197754;28;20416;-72
2022/07/31 01:29:05;;;;;;;13.38;9.48;;;;;;;12.62;100.00;98833.50;4202074;28;20051;-71
2022/07/31 01:31:12;;;;;;;11.93;9.63;;;;;;;12.55;100.00;98827.88;4201248;28;20473;-71
2022/07/31 01:33:17;;;;;;;12.18;9.15;;;;;;;12.51;100.00;98838.16;4199806;28;20627;-71
2022/07/31 01:35:26;;;;;;;10.98;9.00;;;;;;;12.49;100.00;98832.19;4201026;28;20059;-71
2022/07/31 01:37:32;;;;;;;9.90;8.90;;;;;;;12.48;100.00;98830.59;4203481;28;20094;-71
2022/07/31 01:39:34;;;;;;;9.63;8.63;;;;;;;12.47;100.00;98827.03;4200950;28;20040;-71
2022/07/31 01:41:40;;;;;;;11.38;8.85;;;;;;;12.42;100.00;98832.94;4203133;28;20047;-71
2022/07/31 01:43:45;;;;;;;10.02;8.90;;;;;;;12.35;100.00;98828.09;4198836;28;20577;-71
2022/07/31 01:45:49;;;;;;;10.15;9.07;;;;;;;12.30;100.00;98828.44;4202231;28;20072;-71
2022/07/31 01:47:52;;;;;;;10.63;9.45;;;;;;;12.31;100.00;98827.25;4203056;28;20075;-71
2022/07/31 01:49:54;;;;;;;8.98;8.07;;;;;;;12.36;100.00;98823.34;4199861;28;20041;-71
2022/07/31 01:51:57;;;;;;;10.65;9.35;;;;;;;12.37;100.00;98828.50;4201089;28;20040;-71
2022/07/31 01:54:00;;;;;;;12.23;9.07;;;;;;;12.33;100.00;98822.16;4202777;28;21213;-72
2022/07/31 01:56:01;;;;;;;15.45;9.70;;;;;;;12.29;100.00;98824.06;4200347;28;20260;-71
2022/07/31 01:58:04;;;;;;;15.25;9.02;;;;;;;12.25;100.00;98833.56;4200636;28;20040;-71
2022/07/31 02:00:07;;;;;;;9.48;8.23;;;;;;;12.25;100.00;98833.56;4200473;28;20024;-71
2022/07/31 02:02:08;;;;;;;11.77;8.55;;;;;;;12.26;100.00;98821.28;4202956;28;20452;-71
2022/07/31 02:04:09;;;;;;;9.43;8.45;;;;;;;12.29;100.00;98826.84;4202214;28;20107;-71
2022/07/31 02:06:11;;;;;;;9.73;7.95;;;;;;;12.26;100.00;98819.28;4199276;28;20375;-71
2022/07/31 02:08:15;;;;;;;12.75;8.35;;;;;;;12.36;100.00;98820.56;4202718;28;20107;-71
2022/07/31 02:10:18;;;;;;;9.05;8.10;;;;;;;12.41;100.00;98813.88;4199976;28;20031;-72
2022/07/31 02:12:19;;;;;;;13.60;9.73;;;;;;;12.38;100.00;98819.00;4201712;28;20609;-71
2022/07/31 02:14:20;;;;;;;14.65;8.38;;;;;;;12.28;100.00;98818.91;4199215;28;20032;-71
2022/07/31 02:16:21;;;;;;;11.52;9.57;;;;;;;12.13;100.00;98809.63;4202097;28;20064;-71
2022/07/31 02:18:23;;;;;;;9.75;8.82;;;;;;;12.11;100.00;98808.44;4202002;28;20039;-71
2022/07/31 02:20:26;;;;;;;10.75;8.40;;;;;;;12.09;100.00;98808.81;4200536;28;20044;-72
2022/07/31 02:22:28;;;;;;;11.70;8.52;;;;;;;12.12;100.00;98807.25;4201377;28;20139;-71
2022/07/31 02:24:28;;;;;;;9.65;8.65;;;;;;;12.11;100.00;98811.22;4200651;28;20115;-71
2022/07/31 02:26:30;;;;;;;11.68;9.05;;;;;;;12.17;100.00;98810.50;4201356;28;20557;-72
2022/07/31 02:28:33;;;;;;;11.02;8.35;;;;;;;12.20;100.00;98804.16;4200671;28;20424;-72
2022/07/31 02:30:34;;;;;;;13.05;9.30;;;;;;;12.30;100.00;98811.78;4200935;28;20310;-71
2022/07/31 02:32:35;;;;;;;11.43;9.38;;;;;;;12.28;100.00;98808.59;4200433;28;20044;-71
2022/07/31 02:34:37;;;;;;;15.50;10.38;;;;;;;12.21;100.00;98805.75;4200508;28;20079;-71
2022/07/31 02:36:38;;;;;;;12.20;9.82;;;;;;;12.13;100.00;98804.09;4199908;28;20339;-71
2022/07/31 02:38:41;;;;;;;11.05;9.05;;;;;;;12.12;100.00;98801.69;4200192;28;20488;-72
2022/07/31 02:40:42;;;;;;;10.75;9.65;;;;;;;12.12;100.00;98802.50;4201412;28;20036;-72
2022/07/31 02:42:45;;;;;;;10.90;8.85;;;;;;;12.18;100.00;98800.19;4200512;28;20326;-71
2022/07/31 02:44:46;;;;;;;13.05;9.85;;;;;;;12.20;100.00;98804.16;4202628;28;20178;-71
2022/07/31 02:46:47;;;;;;;10.85;9.65;;;;;;;12.17;100.00;98807.72;4199989;28;20048;-72
2022/07/31 02:48:48;;;;;;;11.43;9.20;;;;;;;12.17;100.00;98809.69;4199949;28;20046;-71
2022/07/31 02:50:49;;;;;;;9.82;8.00;;;;;;;12.21;100.00;98796.63;4199908;28;20101;-71
2022/07/31 02:52:50;;;;;;;7.35;6.60;;;;;;;12.31;100.00;98801.50;4201580;28;20509;-71
2022/07/31 02:54:51;;;;;;;8.27;7.47;;;;;;;12.34;100.00;98804.31;4202435;28;20072;-71
2022/07/31 02:56:52;;;;;;;7.90;7.10;;;;;;;12.39;100.00;98797.59;4201237;28;20048;-71
2022/07/31 02:58:53;;;;;;;8.48;7.45;;;;;;;12.44;100.00;98799.25;4202895;28;20055;-71
2022/07/31 03:01:01;;;;;;;7.97;7.28;;;;;;;12.46;100.00;98805.19;4202583;28;20298;-71
2022/07/31 03:03:03;;;;;;;8.43;7.63;;;;;;;12.45;100.00;98801.63;4202766;28;20055;-71
2022/07/31 03:05:04;;;;;;;9.80;7.97;;;;;;;12.42;100.00;98809.94;4202899;28;20047;-71
2022/07/31 03:07:04;;;;;;;8.77;7.70;;;;;;;12.43;100.00;98805.97;4202971;28;20353;-71
2022/07/31 03:09:04;;;;;;;10.70;7.68;;;;;;;12.41;100.00;98800.00;4201999;28;20074;-71
2022/07/31 03:11:05;;;;;;;8.85;7.53;;;;;;;12.43;100.00;98795.69;4202358;28;20384;-71
2022/07/31 03:13:06;;;;;;;9.85;8.85;;;;;;;12.40;100.00;98798.41;4201893;28;20063;-72
2022/07/31 03:15:11;;;;;;;9.65;7.88;;;;;;;12.37;100.00;98799.97;4201928;28;20040;-71
2022/07/31 03:17:11;;;;;;;10.35;8.68;;;;;;;12.35;100.00;98794.81;4202234;28;20055;-71
2022/07/31 03:19:12;;;;;;;8.30;7.50;;;;;;;12.39;100.00;98797.59;4201504;28;20388;-71
2022/07/31 03:21:13;;;;;;;9.07;8.18;;;;;;;12.44;100.00;98790.91;4202981;28;20043;-71
2022/07/31 03:23:14;;;;;;;11.60;9.73;;;;;;;12.47;100.00;98802.03;4201806;28;20051;-71
2022/07/31 03:25:15;;;;;;;9.13;8.25;;;;;;;12.45;100.00;98795.28;4201987;28;20040;-71
2022/07/31 03:27:16;;;;;;;9.85;8.75;;;;;;;12.50;100.00;98790.19;4202170;28;20097;-71
2022/07/31 03:29:16;;;;;;;8.68;7.85;;;;;;;12.53;100.00;98794.97;4201418;28;20468;-71
2022/07/31 03:31:16;;;;;;;9.70;8.73;;;;;;;12.57;100.00;98784.69;4202803;28;20040;-71
2022/07/31 03:33:17;;;;;;;10.50;8.38;;;;;;;12.60;100.00;98792.25;4201043;28;20052;-71
2022/07/31 03:35:18;;;;;;;12.52;9.82;;;;;;;12.57;100.00;98792.22;4202046;28;20102;-71
2022/07/31 03:37:18;;;;;;;11.55;9.45;;;;;;;12.54;100.00;98790.22;4201297;28;20476;-71
2022/07/31 03:39:19;;;;;;;9.65;8.82;;;;;;;12.54;100.00;98788.22;4201356;28;20052;-71
2022/07/31 03:41:19;;;;;;;8.73;7.93;;;;;;;12.57;100.00;98790.22;4200832;28;20051;-71
2022/07/31 03:43:20;;;;;;;13.93;8.60;;;;;;;12.60;100.00;98792.25;4197261;28;20138;-71
2022/07/31 03:45:21;;;;;;;9.75;8.77;;;;;;;12.65;100.00;98786.34;4201931;28;20312;-71
2022/07/31 03:47:22;;;;;;;10.55;9.00;;;;;;;12.70;100.00;98778.84;4200286;28;20503;-71
2022/07/31 03:49:23;;;;;;;10.82;7.90;;;;;;;12.73;100.00;98783.63;4200337;28;20101;-72
2022/07/31 03:51:24;;;;;;;10.05;8.20;;;;;;;12.75;100.00;98786.81;4201718;28;20528;-71
2022/07/31 03:53:25;;;;;;;9.57;8.23;;;;;;;12.70;100.00;98776.84;4203350;28;20072;-71
2022/07/31 03:55:26;;;;;;;9.30;8.48;;;;;;;12.67;100.00;98783.19;4201514;28;20131;-72
2022/07/31 03:57:28;;;;;;;9.48;8.57;;;;;;;12.62;100.00;98786.31;4200281;28;20067;-72
2022/07/31 03:59:29;;;;;;;9.32;8.43;;;;;;;12.57;100.00;98784.69;4200691;28;20104;-71
2022/07/31 04:01:29;;;;;;;9.80;8.80;;;;;;;12.52;100.00;98792.56;4201190;28;20142;-71
2022/07/31 04:03:31;;;;;;;9.98;8.98;;;;;;;12.48;100.00;98795.31;4200522;28;20051;-71
2022/07/31 04:05:31;;;;;;;15.23;9.30;;;;;;;12.44;100.00;98790.91;4202503;28;20040;-71
2022/07/31 04:07:32;;;;;;;12.60;8.40;;;;;;;12.47;100.00;98784.59;4200382;28;20613;-71
2022/07/31 04:09:32;;;;;;;11.25;8.68;;;;;;;12.47;100.00;98790.94;4201011;28;20043;-71
2022/07/31 04:11:33;;;;;;;11.73;8.73;;;;;;;12.47;100.00;98790.94;4202009;28;20072;-71
2022/07/31 04:13:35;;;;;;;8.75;7.88;;;;;;;12.51;100.00;98791.00;4201216;28;20040;-71
2022/07/31 04:15:35;;;;;;;9.55;8.65;;;;;;;12.54;100.00;98795.75;4201813;28;20159;-71
2022/07/31 04:17:35;;;;;;;10.02;8.55;;;;;;;12.59;100.00;98796.22;4201468;28;20080;-71
2022/07/31 04:19:36;;;;;;;14.38;9.02;;;;;;;12.63;100.00;98799.81;4200795;28;20036;-71
2022/07/31 04:21:36;;;;;;;14.65;10.57;;;;;;;12.67;100.00;98794.28;4201547;28;20075;-71
2022/07/31 04:23:37;;;;;;;10.52;9.43;;;;;;;12.70;100.00;98793.53;4201284;28;20450;-71
2022/07/31 04:25:37;;;;;;;10.52;9.27;;;;;;;12.76;100.00;98799.53;4201847;28;20476;-71
2022/07/31 04:27:37;;;;;;;13.45;11.35;;;;;;;12.80;100.00;98798.34;4201461;28;20127;-71
2022/07/31 04:29:38;;;;;;;12.50;9.25;;;;;;;12.88;100.00;98801.97;4201477;28;20071;-71
2022/07/31 04:31:38;;;;;;;13.30;9.43;;;;;;;13.01;100.00;98805.25;4201172;28;20090;-71
2022/07/31 04:33:39;;;;;;;11.98;9.20;;;;;;;13.12;100.00;98812.47;4201049;28;20082;-71
2022/07/31 04:35:40;;;;;;;13.75;10.32;;;;;;;13.23;100.00;98814.53;4201593;28;20074;-72
2022/07/31 04:37:41;;;;;;;11.13;8.83;;;;;;;13.25;100.00;98801.09;4202193;28;20380;-72
2022/07/31 04:39:42;;;;;;;11.95;10.75;;;;;;;13.27;100.00;98805.06;4200404;28;20300;-72
2022/07/31 04:41:43;;;;;;;12.38;10.38;;;;;;;13.27;100.00;98801.47;4200886;28;20287;-72
2022/07/31 04:43:43;;;;;;;10.25;9.25;;;;;;;13.29;100.00;98805.47;4200014;28;20127;-72
2022/07/31 04:45:44;;;;;;;10.35;9.35;;;;;;;13.29;100.00;98807.44;4200445;28;20496;-72
2022/07/31 04:47:45;;;;;;;9.93;8.93;;;;;;;13.37;100.00;98821.00;4201386;28;20044;-72
2022/07/31 04:49:45;;;;;;;11.05;9.20;;;;;;;13.44;100.00;98817.47;4201582;28;20505;-72
2022/07/31 04:51:45;;;;;;;11.02;9.52;;;;;;;13.47;100.00;98823.03;4200709;28;20323;-71
2022/07/31 04:53:48;;;;;;;12.27;9.55;;;;;;;13.54;100.00;98824.25;4199283;28;20068;-72
2022/07/31 04:58:09;;;;;;;12.35;8.90;;;;;;;13.66;100.00;98823.94;4200841;28;20097;-72
2022/07/31 05:00:10;;;;;;;14.23;9.82;;;;;;;13.72;100.00;98814.81;4201159;28;20031;-72
2022/07/31 05:02:10;;;;;;;9.82;8.82;;;;;;;13.82;100.00;98815.22;4204213;28;20086;-72
2022/07/31 05:04:11;;;;;;;11.18;9.48;;;;;;;13.87;100.00;98820.44;4204789;28;20044;-71
2022/07/31 05:06:12;;;;;;;10.48;9.38;;;;;;;13.85;100.00;98812.47;4203962;28;20039;-71
2022/07/31 05:08:12;;;;;;;11.00;9.85;;;;;;;13.87;100.00;98817.66;4204530;28;20494;-71
2022/07/31 05:11:21;;;;;;;12.25;9.98;;;;;;;13.91;100.00;98818.47;4203729;28;20032;-71
2022/07/31 05:12:33;;;;;;;11.10;9.98;;;;;;;13.95;100.00;98820.06;4204197;28;20048;-71
2022/07/31 05:14:33;;;;;;;14.48;8.80;;;;;;;13.99;100.00;98820.09;4203463;28;20486;-71
2022/07/31 05:16:34;;;;;;;10.48;9.40;;;;;;;14.05;100.00;98822.06;4204486;28;20859;-71
2022/07/31 05:18:34;;;;;;;10.90;9.48;;;;;;;14.12;100.00;98823.28;4202856;28;20037;-72
2022/07/31 05:20:35;;;;;;;13.00;9.32;;;;;;;14.21;100.00;98830.06;4204229;28;20499;-72
2022/07/31 05:22:35;;;;;;;12.73;10.38;;;;;;;14.28;100.00;98827.31;4203252;28;20068;-72
2022/07/31 05:24:36;;;;;;;9.60;8.70;;;;;;;14.35;100.00;98826.53;4203407;28;20101;-72
2022/07/31 05:26:37;;;;;;;12.27;9.10;;;;;;;14.45;100.00;98824.94;4204091;28;20043;-72
2022/07/31 05:28:39;;;;;;;11.02;8.25;;;;;;;14.51;100.00;98821.41;4202504;28;20052;-72
2022/07/31 05:30:39;;;;;;;12.07;9.93;;;;;;;14.65;100.00;98825.41;4203762;28;20435;-72
2022/07/31 05:32:39;;;;;;;12.27;10.23;;;;;;;14.73;100.00;98824.19;4202452;28;20131;-72
2022/07/31 05:34:40;;;;;;;13.57;10.68;;;;;;;14.77;100.00;98834.16;4201716;28;20044;-72
2022/07/31 05:36:40;;;;;;;18.35;11.90;;;;;;;14.83;100.00;98826.22;4203834;28;20076;-72
2022/07/31 05:38:40;;;;;;;12.35;11.15;;;;;;;14.85;100.00;98823.81;4203095;28;20040;-72
2022/07/31 05:40:41;;;;;;;18.73;12.23;;;;;;;14.91;100.00;98827.81;4204741;28;20048;-72
2022/07/31 05:42:42;;;;;;;14.85;11.48;;;;;;;14.94;100.00;98826.22;4202804;28;20097;-72
2022/07/31 05:44:42;;;;;;;11.30;10.18;;;;;;;14.99;100.00;98829.41;4203240;28;20444;-72
2022/07/31 05:46:42;;;;;;;11.10;9.90;;;;;;;15.03;100.00;98829.38;4202569;28;20044;-72
2022/07/31 05:48:43;;;;;;;15.57;11.35;;;;;;;15.09;100.00;98833.38;4203894;28;20039;-72
2022/07/31 05:50:46;;;;;;;13.52;10.35;;;;;;;15.12;100.00;98821.41;4203810;28;20434;-71
2022/07/31 05:52:48;;;;;;;11.20;10.02;;;;;;;15.17;100.00;98830.16;4201588;28;20067;-71
2022/07/31 05:54:48;;;;;;;13.05;11.75;;;;;;;15.25;100.00;98836.53;4202345;28;20577;-71
2022/07/31 05:56:48;;;;;;;15.75;12.27;;;;;;;15.31;100.00;98828.56;4203199;28;20068;-71
2022/07/31 05:58:49;;;;;;;16.00;12.23;;;;;;;15.36;100.00;98822.56;4203238;28;20094;-71
2022/07/31 06:00:49;;;;;;;14.90;13.38;;;;;;;15.39;100.00;98832.91;4203618;28;20148;-71
2022/07/31 06:02:49;;;;;;;13.65;11.57;;;;;;;15.42;100.00;98818.97;4203013;28;20488;-71
2022/07/31 06:04:50;;;;;;;15.18;12.30;;;;;;;15.51;100.00;98840.06;4203073;28;20081;-71
2022/07/31 06:06:50;;;;;;;11.88;10.68;;;;;;;15.58;100.00;98834.47;4203531;28;20074;-72
2022/07/31 06:08:50;;;;;;;17.15;12.40;;;;;;;15.70;100.00;98831.25;4203546;28;20048;-72
2022/07/31 06:10:51;;;;;;;15.68;12.80;;;;;;;15.73;100.00;98827.69;4203130;28;20372;-71
2022/07/31 06:12:51;;;;;;;14.05;11.70;;;;;;;15.80;100.00;98835.22;4202253;28;20435;-72
2022/07/31 06:14:52;;;;;;;16.38;12.48;;;;;;;15.85;100.00;98829.22;4200889;28;20052;-72
2022/07/31 06:16:52;;;;;;;12.77;11.13;;;;;;;15.94;100.00;98833.16;4202633;28;20049;-72
2022/07/31 06:18:52;;;;;;;13.07;10.82;;;;;;;16.01;100.00;98830.34;4202646;28;20295;-72
2022/07/31 06:20:53;;;;;;;15.50;11.88;;;;;;;16.14;100.00;98825.09;4203095;28;20313;-72
2022/07/31 06:22:53;;;;;;;13.93;11.82;;;;;;;16.27;100.00;98837.38;4201289;28;20056;-72
2022/07/31 06:24:54;;;;;;;16.52;12.02;;;;;;;16.34;100.00;98841.34;4202222;28;20055;-72
2022/07/31 06:26:59;;;;;;;17.60;12.50;;;;;;;16.45;100.00;98842.06;4202998;28;20048;-72
2022/07/31 06:28:59;;;;;;;20.30;13.77;;;;;;;16.50;100.00;98842.44;4202891;28;20040;-72
2022/07/31 06:31:00;;;;;;;10.77;9.70;;;;;;;16.51;98.95;98846.03;4203498;28;20372;-71
2022/07/31 06:33:00;;;;;;;12.05;10.60;;;;;;;16.52;96.33;98840.03;4202799;28;20052;-72
2022/07/31 06:35:01;;;;;;;9.98;8.95;;;;;;;16.56;94.08;98834.41;4201448;28;20035;-72
2022/07/31 06:37:01;;;;;;;13.68;9.88;;;;;;;16.57;95.44;98828.44;4203078;28;20086;-72
2022/07/31 06:39:01;;;;;;;11.27;10.07;;;;;;;16.58;96.60;98832.00;4203205;28;20063;-72
2022/07/31 06:41:02;;;;;;;12.40;10.90;;;;;;;16.61;97.03;98830.38;4203412;28;20059;-72
2022/07/31 06:43:02;;;;;;;13.70;11.10;;;;;;;16.66;97.14;98821.59;4199704;28;20055;-72
2022/07/31 06:45:03;;;;;;;11.50;10.15;;;;;;;16.75;96.45;98828.31;4202541;28;20056;-72
2022/07/31 06:47:03;;;;;;;16.63;10.90;;;;;;;16.91;97.93;98819.41;4202427;28;20044;-72
2022/07/31 06:49:04;;;;;;;9.02;8.13;;;;;;;17.05;88.10;98818.50;4201148;28;20059;-72
2022/07/31 06:51:05;;;;;;;10.30;9.40;;;;;;;17.21;91.49;98823.53;4202839;28;20540;-72
2022/07/31 06:53:05;;;;;;;14.15;11.60;;;;;;;17.35;94.96;98815.78;4201951;28;20067;-72
2022/07/31 06:55:06;;;;;;;17.00;11.50;;;;;;;17.45;95.17;98804.91;4202897;28;20369;-72
2022/07/31 06:57:06;;;;;;;14.45;12.77;;;;;;;17.58;96.05;98812.34;4202371;28;20498;-72
2022/07/31 06:59:07;;;;;;;18.02;12.30;;;;;;;17.64;93.97;98807.09;4202522;28;20134;-72
2022/07/31 07:01:07;;;;;;;15.25;11.32;;;;;;;17.64;92.01;98810.69;4202320;28;20147;-72
2022/07/31 07:03:07;;;;;;;11.85;10.65;;;;;;;17.67;92.56;98806.25;4201636;28;20097;-72
2022/07/31 07:05:08;;;;;;;12.93;11.57;;;;;;;17.81;93.25;98813.72;4202499;28;20530;-72
2022/07/31 07:07:08;;;;;;;17.63;11.65;;;;;;;17.89;91.48;98799.22;4203386;28;20047;-72
2022/07/31 07:09:08;;;;;;;11.07;9.98;;;;;;;17.97;91.05;98802.72;4202288;28;20043;-72
2022/07/31 07:11:09;;;;;;;14.13;11.30;;;;;;;18.00;88.90;98799.06;4202356;28;20044;-72
2022/07/31 07:13:09;;;;;;;13.70;10.35;;;;;;;18.13;88.03;98810.50;4202210;28;20315;-72
2022/07/31 07:15:10;;;;;;;11.32;10.13;;;;;;;18.22;88.01;98791.19;4202886;28;20052;-72
2022/07/31 07:17:10;;;;;;;14.38;10.80;;;;;;;18.31;89.10;98794.25;4202655;28;20383;-72
2022/07/31 07:19:10;;;;;;;12.55;11.25;;;;;;;18.42;90.34;98789.28;4202407;28;20073;-72
2022/07/31 07:21:11;;;;;;;11.95;10.65;;;;;;;18.57;87.85;98797.47;4202043;28;20507;-72
2022/07/31 07:23:11;;;;;;;11.88;10.68;;;;;;;18.73;86.49;98792.03;4197688;28;21132;-72
2022/07/31 07:25:12;;;;;;;11.35;9.20;;;;;;;18.85;84.81;98796.22;4202581;28;20484;-72
2022/07/31 07:27:12;;;;;;;11.18;9.98;;;;;;;18.94;80.49;98791.66;4201346;28;20119;-72
2022/07/31 07:29:13;;;;;;;11.60;9.10;;;;;;;19.08;82.26;98782.22;4200004;28;20439;-72
2022/07/31 07:31:13;;;;;;;12.75;10.45;;;;;;;19.15;80.64;98784.09;4200418;28;20059;-72
2022/07/31 07:33:14;;;;;;;10.55;9.40;;;;;;;19.11;81.66;98786.97;4196010;28;20396;-72
2022/07/31 07:35:14;;;;;;;14.30;10.63;;;;;;;19.08;79.97;98779.41;4137221;28;20040;-72
2022/07/31 07:37:14;;;;;;;10.85;8.35;;;;;;;19.07;77.88;98783.44;4198271;28;20074;-72
2022/07/31 07:39:15;;;;;;;9.98;9.02;;;;;;;19.11;79.33;98783.38;4201081;28;20048;-72
2022/07/31 07:41:15;;;;;;;15.70;8.13;;;;;;;19.25;76.42;98791.53;4200546;28;20318;-72
2022/07/31 07:43:15;;;;;;;10.25;8.68;;;;;;;19.32;77.03;98789.38;4199483;28;20044;-72
2022/07/31 07:45:16;;;;;;;9.05;7.90;;;;;;;19.50;76.60;98788.25;4197766;28;20036;-72
2022/07/31 07:47:16;;;;;;;10.02;7.68;;;;;;;19.61;76.08;98775.63;4198742;28;20047;-72
2022/07/31 07:49:17;;;;;;;9.00;8.07;;;;;;;19.73;74.55;98776.19;4200092;28;20094;-72
2022/07/31 07:51:17;;;;;;;8.50;7.45;;;;;;;19.79;73.43;98772.47;4198184;28;20047;-72
2022/07/31 07:53:18;;;;;;;7.88;7.07;;;;;;;19.83;73.59;98766.75;4201486;28;20542;-72
2022/07/31 07:55:18;;;;;;;8.43;7.05;;;;;;;19.90;72.09;98772.22;4199220;28;20032;-72
2022/07/31 07:57:19;;;;;;;10.77;6.55;;;;;;;20.04;72.34;98766.31;4197712;28;20426;-72
2022/07/31 07:59:20;;;;;;;8.13;7.03;;;;;;;20.09;71.81;98757.34;4201151;28;20761;-72
2022/07/31 08:01:20;;;;;;;7.18;6.47;;;;;;;20.12;70.05;98761.31;4200329;28;20056;-72
2022/07/31 08:03:21;;;;;;;7.95;5.78;;;;;;;20.19;68.13;98764.78;4200079;28;20067;-72
2022/07/31 08:05:21;;;;;;;8.18;5.82;;;;;;;20.24;67.77;98763.44;4198764;28;20488;-72
2022/07/31 08:07:32;;;;;;;7.80;6.03;;;;;;;20.28;66.25;98763.38;4196532;28;20284;-72
2022/07/31 08:09:33;;;;;;;11.50;5.97;;;;;;;20.30;66.21;98758.09;4198772;28;20363;-72
2022/07/31 08:11:33;;;;;;;8.70;6.00;;;;;;;20.36;66.50;98751.53;4198374;28;20052;-72
2022/07/31 08:13:34;;;;;;;6.85;5.80;;;;;;;20.48;66.54;98750.84;4198076;28;20093;-72
2022/07/31 08:15:34;;;;;;;8.65;5.88;;;;;;;20.52;65.59;98747.16;4199028;28;20079;-72
2022/07/31 08:17:34;;;;;;;7.22;5.45;;;;;;;20.57;66.32;98757.88;4200449;28;20040;-72
2022/07/31 08:19:35;;;;;;;6.32;5.65;;;;;;;20.67;66.62;98751.22;4199136;28;20141;-72
2022/07/31 08:21:36;;;;;;;9.35;5.97;;;;;;;20.69;68.86;98755.19;4199028;28;20037;-72
2022/07/31 08:23:36;;;;;;;9.88;5.80;;;;;;;20.76;67.89;98748.56;4199186;28;20049;-72
2022/07/31 08:25:36;;;;;;;7.15;6.53;;;;;;;20.84;67.53;98749.97;4198469;28;20090;-72
2022/07/31 08:27:37;;;;;;;8.65;6.22;;;;;;;21.03;65.74;98751.09;4201270;28;20040;-72
2022/07/31 08:29:37;;;;;;;8.88;6.05;;;;;;;21.09;66.94;98754.94;4200471;28;20360;-72
2022/07/31 08:31:38;;;;;;;10.38;6.80;;;;;;;21.06;66.06;98752.22;4197814;28;20083;-72
2022/07/31 08:33:38;;;;;;;7.32;5.68;;;;;;;21.07;65.25;98746.16;4199162;28;20122;-72
2022/07/31 08:35:38;;;;;;;6.45;5.60;;;;;;;21.11;65.23;98737.66;4200841;28;20047;-72
2022/07/31 08:37:42;;;;;;;9.07;6.22;;;;;;;21.18;61.97;98743.06;4201289;28;20074;-72
2022/07/31 08:39:42;;;;;;;6.70;5.90;;;;;;;21.26;61.73;98739.59;4200957;28;20742;-72
2022/07/31 08:41:42;;;;;;;6.75;6.05;;;;;;;21.48;61.18;98734.22;4200276;28;20046;-72
2022/07/31 08:43:42;;;;;;;6.32;5.72;;;;;;;21.71;59.73;98733.16;4197485;28;20206;-72
2022/07/31 08:45:45;;;;;;;9.77;6.13;;;;;;;21.88;60.50;98736.66;4200790;28;20070;-72
2022/07/31 08:47:47;;;;;;;6.57;5.40;;;;;;;21.88;58.42;98731.81;4199553;28;20503;-73
2022/07/31 08:49:48;;;;;;;8.43;5.75;;;;;;;22.08;57.94;98737.28;4199889;28;20101;-72
2022/07/31 08:51:49;;;;;;;7.15;5.28;;;;;;;22.23;55.32;98732.00;4198219;28;20123;-73
2022/07/31 08:53:50;;;;;;;5.95;5.28;;;;;;;22.34;55.67;98735.28;4201974;28;20078;-73
2022/07/31 08:55:51;;;;;;;5.35;4.82;;;;;;;22.46;54.71;98727.25;4200790;28;20044;-73
2022/07/31 08:57:52;;;;;;;7.32;4.82;;;;;;;22.43;53.89;98726.16;4201109;28;20141;-72
2022/07/31 08:59:53;;;;;;;5.30;4.40;;;;;;;22.45;52.92;98720.03;4199107;28;20040;-73
2022/07/31 09:01:55;;;;;;;4.70;4.30;;;;;;;22.47;51.53;98718.34;4198481;28;20472;-73
2022/07/31 09:03:57;;;;;;;;;;;;;;;22.50;51.85;98719.47;4200173;28;20437;-73
2022/07/31 09:05:57;;;;;;;4.20;3.80;;;;;;;22.77;52.66;98721.81;4198407;28;20022;-73
2022/07/31 09:07:57;;;;;;;9.93;4.70;;;;;;;22.93;52.41;98714.00;4201364;28;20090;-73
2022/07/31 09:09:58;;;;;;;5.78;4.30;;;;;;;23.07;52.48;98714.72;4199719;28;20083;-73
2022/07/31 09:11:58;;;;;;;13.38;5.35;;;;;;;23.13;52.86;98708.06;4200287;28;20131;-73
2022/07/31 09:14:02;;;;;;;6.40;4.68;;;;;;;23.18;51.41;98712.34;4200566;28;21395;-73
2022/07/31 09:16:03;;;;;;;7.03;4.78;;;;;;;23.25;52.74;98706.41;4197514;28;20050;-73
2022/07/31 09:18:20;;;;;;;6.10;5.05;;;;;;;23.35;53.23;98707.28;4199115;28;20056;-73
2022/07/31 09:20:24;;;;;;;6.35;4.93;;;;;;;23.37;52.71;98705.59;4196858;28;20187;-73
2022/07/31 09:22:28;;;;;;;7.15;5.05;;;;;;;23.36;53.79;98708.88;4199687;28;20044;-73
2022/07/31 09:24:32;;;;;;;6.03;4.82;;;;;;;23.30;53.46;98705.06;4198677;28;20471;-73
2022/07/31 09:26:33;;;;;;;6.03;5.43;;;;;;;23.21;52.89;98708.59;4198315;28;20101;-73